sensor_id;sensor_type;location;lat;lon;timestamp;P1;durP1;ratioP1;P2;durP2;ratioP2
12459;SDS011;6295;49.452;8.466;2022-08-19T00:01:11;20.87;;;18.80;;
12459;SDS011;6295;49.452;8.466;2022-08-19T00:05:14;21.23;;;19.20;;
12459;SDS011;6295;49.452;8.466;2022-08-19T00:09:17;21.43;;;19.43;;
12459;SDS011;6295;49.452;8.466;2022-08-19T00:13:21;21.73;;;19.57;;
12459;SDS011;6295;49.452;8.466;2022-08-19T00:17:24;23.07;;;20.83;;
12459;SDS011;6295;49.452;8.466;2022-08-19T00:21:26;22.93;;;20.73;;
12459;SDS011;6295;49.452;8.466;2022-08-19T00:25:28;22.87;;;20.67;;
12459;SDS011;6295;49.452;8.466;2022-08-19T00:29:30;23.00;;;20.80;;
12459;SDS011;6295;49.452;8.466;2022-08-19T00:33:34;23.63;;;21.47;;
12459;SDS011;6295;49.452;8.466;2022-08-19T00:37:37;22.60;;;20.43;;
12459;SDS011;6295;49.452;8.466;2022-08-19T00:41:43;22.50;;;20.47;;
12459;SDS011;6295;49.452;8.466;2022-08-19T00:45:47;23.60;;;21.30;;
12459;SDS011;6295;49.452;8.466;2022-08-19T00:49:52;23.80;;;21.40;;
12459;SDS011;6295;49.452;8.466;2022-08-19T00:53:57;23.17;;;21.07;;
12459;SDS011;6295;49.452;8.466;2022-08-19T00:58:02;23.57;;;21.33;;
12459;SDS011;6295;49.452;8.466;2022-08-19T01:02:08;23.93;;;21.57;;
12459;SDS011;6295;49.452;8.466;2022-08-19T01:06:12;23.47;;;21.37;;
12459;SDS011;6295;49.452;8.466;2022-08-19T01:10:15;23.30;;;21.13;;
12459;SDS011;6295;49.452;8.466;2022-08-19T01:14:19;23.43;;;21.23;;
12459;SDS011;6295;49.452;8.466;2022-08-19T01:18:21;22.73;;;20.63;;
12459;SDS011;6295;49.452;8.466;2022-08-19T01:22:28;23.73;;;21.53;;
12459;SDS011;6295;49.452;8.466;2022-08-19T01:26:37;23.53;;;21.33;;
12459;SDS011;6295;49.452;8.466;2022-08-19T01:30:40;24.30;;;21.97;;
12459;SDS011;6295;49.452;8.466;2022-08-19T01:34:43;22.97;;;20.77;;
12459;SDS011;6295;49.452;8.466;2022-08-19T01:38:48;23.10;;;21.00;;
12459;SDS011;6295;49.452;8.466;2022-08-19T01:42:50;23.13;;;21.03;;
12459;SDS011;6295;49.452;8.466;2022-08-19T01:46:53;22.43;;;20.43;;
12459;SDS011;6295;49.452;8.466;2022-08-19T01:50:55;22.63;;;20.40;;
12459;SDS011;6295;49.452;8.466;2022-08-19T01:54:59;23.50;;;21.30;;
12459;SDS011;6295;49.452;8.466;2022-08-19T01:59:02;23.67;;;21.57;;
12459;SDS011;6295;49.452;8.466;2022-08-19T02:03:07;24.67;;;22.33;;
12459;SDS011;6295;49.452;8.466;2022-08-19T02:07:11;23.90;;;21.50;;
12459;SDS011;6295;49.452;8.466;2022-08-19T02:11:19;23.37;;;21.27;;
12459;SDS011;6295;49.452;8.466;2022-08-19T02:15:26;23.27;;;21.17;;
12459;SDS011;6295;49.452;8.466;2022-08-19T02:19:28;23.67;;;21.37;;
12459;SDS011;6295;49.452;8.466;2022-08-19T02:23:32;22.83;;;20.67;;
12459;SDS011;6295;49.452;8.466;2022-08-19T02:27:35;23.40;;;21.27;;
12459;SDS011;6295;49.452;8.466;2022-08-19T02:31:38;23.63;;;21.53;;
12459;SDS011;6295;49.452;8.466;2022-08-19T02:35:40;23.83;;;21.73;;
12459;SDS011;6295;49.452;8.466;2022-08-19T02:39:43;22.97;;;20.90;;
12459;SDS011;6295;49.452;8.466;2022-08-19T02:43:47;25.03;;;22.50;;
12459;SDS011;6295;49.452;8.466;2022-08-19T02:47:49;24.00;;;21.80;;
12459;SDS011;6295;49.452;8.466;2022-08-19T02:51:51;23.90;;;21.80;;
12459;SDS011;6295;49.452;8.466;2022-08-19T02:55:54;24.40;;;22.10;;
12459;SDS011;6295;49.452;8.466;2022-08-19T02:59:58;24.00;;;21.70;;
12459;SDS011;6295;49.452;8.466;2022-08-19T03:04:02;25.17;;;22.87;;
12459;SDS011;6295;49.452;8.466;2022-08-19T03:08:05;24.87;;;22.57;;
12459;SDS011;6295;49.452;8.466;2022-08-19T03:12:07;24.57;;;22.27;;
12459;SDS011;6295;49.452;8.466;2022-08-19T03:16:12;24.97;;;22.77;;
12459;SDS011;6295;49.452;8.466;2022-08-19T03:20:14;24.90;;;22.57;;
12459;SDS011;6295;49.452;8.466;2022-08-19T03:24:17;25.60;;;23.10;;
12459;SDS011;6295;49.452;8.466;2022-08-19T03:28:20;25.33;;;22.93;;
12459;SDS011;6295;49.452;8.466;2022-08-19T03:32:24;25.27;;;22.83;;
12459;SDS011;6295;49.452;8.466;2022-08-19T03:36:26;24.67;;;22.37;;
12459;SDS011;6295;49.452;8.466;2022-08-19T03:40:28;25.57;;;23.17;;
12459;SDS011;6295;49.452;8.466;2022-08-19T03:44:31;24.47;;;22.17;;
12459;SDS011;6295;49.452;8.466;2022-08-19T03:48:35;24.43;;;22.13;;
12459;SDS011;6295;49.452;8.466;2022-08-19T03:52:38;23.87;;;21.43;;
12459;SDS011;6295;49.452;8.466;2022-08-19T03:56:41;24.37;;;22.10;;
12459;SDS011;6295;49.452;8.466;2022-08-19T04:00:44;25.07;;;22.77;;
12459;SDS011;6295;49.452;8.466;2022-08-19T04:04:48;24.30;;;22.10;;
12459;SDS011;6295;49.452;8.466;2022-08-19T04:08:50;24.27;;;21.97;;
12459;SDS011;6295;49.452;8.466;2022-08-19T04:12:53;24.00;;;21.80;;
12459;SDS011;6295;49.452;8.466;2022-08-19T04:16:56;23.00;;;20.70;;
12459;SDS011;6295;49.452;8.466;2022-08-19T04:20:59;23.17;;;20.97;;
12459;SDS011;6295;49.452;8.466;2022-08-19T04:25:02;22.40;;;20.40;;
12459;SDS011;6295;49.452;8.466;2022-08-19T04:29:05;21.77;;;19.77;;
12459;SDS011;6295;49.452;8.466;2022-08-19T04:33:09;22.70;;;20.50;;
12459;SDS011;6295;49.452;8.466;2022-08-19T04:37:13;21.67;;;19.67;;
12459;SDS011;6295;49.452;8.466;2022-08-19T04:41:15;21.80;;;19.80;;
12459;SDS011;6295;49.452;8.466;2022-08-19T04:45:36;20.90;;;19.07;;
12459;SDS011;6295;49.452;8.466;2022-08-19T04:49:38;21.13;;;19.23;;
12459;SDS011;6295;49.452;8.466;2022-08-19T04:53:42;20.70;;;18.80;;
12459;SDS011;6295;49.452;8.466;2022-08-19T04:57:44;21.37;;;19.37;;
12459;SDS011;6295;49.452;8.466;2022-08-19T05:01:47;20.60;;;18.70;;
12459;SDS011;6295;49.452;8.466;2022-08-19T05:05:50;20.40;;;18.47;;
12459;SDS011;6295;49.452;8.466;2022-08-19T05:09:53;19.90;;;18.00;;
12459;SDS011;6295;49.452;8.466;2022-08-19T05:13:56;19.27;;;17.47;;
12459;SDS011;6295;49.452;8.466;2022-08-19T05:17:58;20.57;;;18.63;;
12459;SDS011;6295;49.452;8.466;2022-08-19T05:22:18;19.13;;;17.43;;
12459;SDS011;6295;49.452;8.466;2022-08-19T05:26:37;18.83;;;17.13;;
12459;SDS011;6295;49.452;8.466;2022-08-19T05:30:39;19.70;;;17.90;;
12459;SDS011;6295;49.452;8.466;2022-08-19T05:34:43;20.03;;;18.13;;
12459;SDS011;6295;49.452;8.466;2022-08-19T05:38:45;19.37;;;17.57;;
12459;SDS011;6295;49.452;8.466;2022-08-19T05:42:51;19.07;;;17.13;;
12459;SDS011;6295;49.452;8.466;2022-08-19T05:46:53;18.90;;;17.00;;
12459;SDS011;6295;49.452;8.466;2022-08-19T05:50:55;18.87;;;17.17;;
12459;SDS011;6295;49.452;8.466;2022-08-19T05:54:58;18.10;;;16.50;;
12459;SDS011;6295;49.452;8.466;2022-08-19T05:59:02;18.60;;;16.90;;
12459;SDS011;6295;49.452;8.466;2022-08-19T06:03:10;18.00;;;16.40;;
12459;SDS011;6295;49.452;8.466;2022-08-19T06:07:12;18.30;;;16.63;;
12459;SDS011;6295;49.452;8.466;2022-08-19T06:11:16;18.27;;;16.67;;
12459;SDS011;6295;49.452;8.466;2022-08-19T06:15:22;18.30;;;16.60;;
12459;SDS011;6295;49.452;8.466;2022-08-19T06:19:29;18.97;;;17.17;;
12459;SDS011;6295;49.452;8.466;2022-08-19T06:23:32;18.50;;;16.90;;
12459;SDS011;6295;49.452;8.466;2022-08-19T06:27:35;18.07;;;16.37;;
12459;SDS011;6295;49.452;8.466;2022-08-19T06:31:41;18.77;;;17.07;;
12459;SDS011;6295;49.452;8.466;2022-08-19T06:35:44;17.70;;;16.10;;
12459;SDS011;6295;49.452;8.466;2022-08-19T06:39:47;17.67;;;15.90;;
12459;SDS011;6295;49.452;8.466;2022-08-19T06:43:50;17.73;;;16.13;;
12459;SDS011;6295;49.452;8.466;2022-08-19T06:47:53;16.77;;;15.27;;
12459;SDS011;6295;49.452;8.466;2022-08-19T06:51:56;17.23;;;15.53;;
12459;SDS011;6295;49.452;8.466;2022-08-19T06:55:58;16.77;;;15.27;;
12459;SDS011;6295;49.452;8.466;2022-08-19T07:00:03;17.00;;;15.23;;
12459;SDS011;6295;49.452;8.466;2022-08-19T07:04:13;16.57;;;15.03;;
12459;SDS011;6295;49.452;8.466;2022-08-19T07:08:16;15.60;;;14.10;;
12459;SDS011;6295;49.452;8.466;2022-08-19T07:12:18;15.57;;;14.17;;
12459;SDS011;6295;49.452;8.466;2022-08-19T07:16:20;15.03;;;13.67;;
12459;SDS011;6295;49.452;8.466;2022-08-19T07:20:24;15.27;;;13.77;;
12459;SDS011;6295;49.452;8.466;2022-08-19T07:24:26;15.30;;;13.87;;
12459;SDS011;6295;49.452;8.466;2022-08-19T07:28:29;15.50;;;13.90;;
12459;SDS011;6295;49.452;8.466;2022-08-19T07:32:31;15.03;;;13.57;;
12459;SDS011;6295;49.452;8.466;2022-08-19T07:36:36;13.93;;;12.70;;
12459;SDS011;6295;49.452;8.466;2022-08-19T07:40:40;14.60;;;12.90;;
12459;SDS011;6295;49.452;8.466;2022-08-19T07:44:43;13.70;;;12.30;;
12459;SDS011;6295;49.452;8.466;2022-08-19T07:48:46;13.97;;;12.50;;
12459;SDS011;6295;49.452;8.466;2022-08-19T07:52:51;13.60;;;12.40;;
12459;SDS011;6295;49.452;8.466;2022-08-19T07:56:54;14.70;;;12.37;;
12459;SDS011;6295;49.452;8.466;2022-08-19T08:00:57;15.20;;;12.93;;
12459;SDS011;6295;49.452;8.466;2022-08-19T08:05:02;14.03;;;12.43;;
12459;SDS011;6295;49.452;8.466;2022-08-19T08:09:25;12.13;;;10.90;;
12459;SDS011;6295;49.452;8.466;2022-08-19T08:13:31;12.43;;;11.30;;
12459;SDS011;6295;49.452;8.466;2022-08-19T08:17:35;11.03;;;9.97;;
12459;SDS011;6295;49.452;8.466;2022-08-19T08:21:38;14.07;;;11.27;;
12459;SDS011;6295;49.452;8.466;2022-08-19T08:25:42;11.23;;;9.93;;
12459;SDS011;6295;49.452;8.466;2022-08-19T08:29:45;10.53;;;8.90;;
12459;SDS011;6295;49.452;8.466;2022-08-19T08:33:49;9.23;;;8.33;;
12459;SDS011;6295;49.452;8.466;2022-08-19T08:37:51;10.07;;;9.07;;
12459;SDS011;6295;49.452;8.466;2022-08-19T08:42:01;10.47;;;9.57;;
12459;SDS011;6295;49.452;8.466;2022-08-19T08:46:09;9.60;;;8.70;;
12459;SDS011;6295;49.452;8.466;2022-08-19T08:50:16;11.13;;;10.03;;
12459;SDS011;6295;49.452;8.466;2022-08-19T08:54:24;10.60;;;9.40;;
12459;SDS011;6295;49.452;8.466;2022-08-19T08:58:35;10.13;;;9.20;;
12459;SDS011;6295;49.452;8.466;2022-08-19T09:02:46;9.97;;;9.07;;
12459;SDS011;6295;49.452;8.466;2022-08-19T09:06:58;11.40;;;10.13;;
12459;SDS011;6295;49.452;8.466;2022-08-19T09:11:17;12.87;;;10.80;;
12459;SDS011;6295;49.452;8.466;2022-08-19T09:15:29;11.60;;;10.40;;
12459;SDS011;6295;49.452;8.466;2022-08-19T09:19:35;10.80;;;9.90;;
12459;SDS011;6295;49.452;8.466;2022-08-19T09:23:37;12.10;;;10.80;;
12459;SDS011;6295;49.452;8.466;2022-08-19T09:27:41;12.10;;;10.80;;
12459;SDS011;6295;49.452;8.466;2022-08-19T09:31:45;12.07;;;10.33;;
12459;SDS011;6295;49.452;8.466;2022-08-19T09:35:48;11.77;;;10.67;;
12459;SDS011;6295;49.452;8.466;2022-08-19T09:39:51;11.40;;;10.33;;
12459;SDS011;6295;49.452;8.466;2022-08-19T09:43:54;11.70;;;10.70;;
12459;SDS011;6295;49.452;8.466;2022-08-19T09:48:00;12.07;;;10.87;;
12459;SDS011;6295;49.452;8.466;2022-08-19T09:52:03;11.03;;;10.00;;
12459;SDS011;6295;49.452;8.466;2022-08-19T09:56:05;13.00;;;10.87;;
12459;SDS011;6295;49.452;8.466;2022-08-19T10:00:09;10.73;;;9.67;;
12459;SDS011;6295;49.452;8.466;2022-08-19T10:04:13;11.63;;;10.50;;
12459;SDS011;6295;49.452;8.466;2022-08-19T10:08:15;12.30;;;10.70;;
12459;SDS011;6295;49.452;8.466;2022-08-19T10:12:19;10.60;;;9.60;;
12459;SDS011;6295;49.452;8.466;2022-08-19T10:16:21;10.87;;;9.80;;
12459;SDS011;6295;49.452;8.466;2022-08-19T10:20:26;10.93;;;9.83;;
12459;SDS011;6295;49.452;8.466;2022-08-19T10:24:30;10.17;;;9.27;;
12459;SDS011;6295;49.452;8.466;2022-08-19T10:28:33;10.10;;;9.10;;
12459;SDS011;6295;49.452;8.466;2022-08-19T10:32:38;10.43;;;9.37;;
12459;SDS011;6295;49.452;8.466;2022-08-19T10:36:43;11.43;;;10.43;;
12459;SDS011;6295;49.452;8.466;2022-08-19T10:40:45;11.77;;;10.77;;
12459;SDS011;6295;49.452;8.466;2022-08-19T10:44:47;11.50;;;10.50;;
12459;SDS011;6295;49.452;8.466;2022-08-19T10:48:50;13.03;;;11.93;;
12459;SDS011;6295;49.452;8.466;2022-08-19T10:52:53;11.77;;;10.77;;
12459;SDS011;6295;49.452;8.466;2022-08-19T10:56:55;13.47;;;12.27;;
12459;SDS011;6295;49.452;8.466;2022-08-19T11:00:58;12.83;;;11.93;;
12459;SDS011;6295;49.452;8.466;2022-08-19T11:05:00;13.47;;;12.37;;
12459;SDS011;6295;49.452;8.466;2022-08-19T11:09:04;13.43;;;12.33;;
12459;SDS011;6295;49.452;8.466;2022-08-19T11:13:07;13.37;;;12.37;;
12459;SDS011;6295;49.452;8.466;2022-08-19T11:17:09;13.70;;;12.50;;
12459;SDS011;6295;49.452;8.466;2022-08-19T11:21:15;13.20;;;11.97;;
12459;SDS011;6295;49.452;8.466;2022-08-19T11:25:21;12.67;;;11.57;;
12459;SDS011;6295;49.452;8.466;2022-08-19T11:29:25;10.93;;;10.03;;
12459;SDS011;6295;49.452;8.466;2022-08-19T11:33:29;11.10;;;10.07;;
12459;SDS011;6295;49.452;8.466;2022-08-19T11:37:33;11.77;;;10.67;;
12459;SDS011;6295;49.452;8.466;2022-08-19T11:41:40;11.23;;;10.23;;
12459;SDS011;6295;49.452;8.466;2022-08-19T11:45:45;10.47;;;9.67;;
12459;SDS011;6295;49.452;8.466;2022-08-19T11:49:48;11.10;;;10.20;;
12459;SDS011;6295;49.452;8.466;2022-08-19T11:53:53;11.03;;;10.07;;
12459;SDS011;6295;49.452;8.466;2022-08-19T11:57:59;10.90;;;9.90;;
12459;SDS011;6295;49.452;8.466;2022-08-19T12:02:01;10.83;;;9.93;;
12459;SDS011;6295;49.452;8.466;2022-08-19T12:06:04;9.87;;;9.07;;
12459;SDS011;6295;49.452;8.466;2022-08-19T12:10:07;8.07;;;7.37;;
12459;SDS011;6295;49.452;8.466;2022-08-19T12:14:12;8.30;;;7.70;;
12459;SDS011;6295;49.452;8.466;2022-08-19T12:18:15;8.07;;;7.47;;
12459;SDS011;6295;49.452;8.466;2022-08-19T12:22:17;9.13;;;8.30;;
12459;SDS011;6295;49.452;8.466;2022-08-19T12:26:21;8.47;;;7.77;;
12459;SDS011;6295;49.452;8.466;2022-08-19T12:30:24;8.20;;;7.47;;
12459;SDS011;6295;49.452;8.466;2022-08-19T12:34:27;7.90;;;7.27;;
12459;SDS011;6295;49.452;8.466;2022-08-19T12:38:31;6.83;;;6.33;;
12459;SDS011;6295;49.452;8.466;2022-08-19T12:42:34;6.73;;;6.23;;
12459;SDS011;6295;49.452;8.466;2022-08-19T12:46:39;7.27;;;6.67;;
12459;SDS011;6295;49.452;8.466;2022-08-19T12:50:41;6.33;;;5.83;;
12459;SDS011;6295;49.452;8.466;2022-08-19T12:54:45;6.17;;;5.67;;
12459;SDS011;6295;49.452;8.466;2022-08-19T12:58:48;8.33;;;6.23;;
12459;SDS011;6295;49.452;8.466;2022-08-19T13:02:51;5.97;;;5.50;;
12459;SDS011;6295;49.452;8.466;2022-08-19T13:06:53;6.50;;;6.00;;
12459;SDS011;6295;49.452;8.466;2022-08-19T13:10:55;40.77;;;28.60;;
12459;SDS011;6295;49.452;8.466;2022-08-19T13:14:58;9.60;;;8.70;;
12459;SDS011;6295;49.452;8.466;2022-08-19T13:19:02;7.47;;;6.90;;
12459;SDS011;6295;49.452;8.466;2022-08-19T13:23:05;7.20;;;6.60;;
12459;SDS011;6295;49.452;8.466;2022-08-19T13:27:07;8.13;;;6.70;;
12459;SDS011;6295;49.452;8.466;2022-08-19T13:31:09;8.13;;;7.30;;
12459;SDS011;6295;49.452;8.466;2022-08-19T13:35:30;7.57;;;6.87;;
12459;SDS011;6295;49.452;8.466;2022-08-19T13:39:32;7.60;;;6.77;;
12459;SDS011;6295;49.452;8.466;2022-08-19T13:43:36;7.40;;;6.80;;
12459;SDS011;6295;49.452;8.466;2022-08-19T13:47:39;7.30;;;6.70;;
12459;SDS011;6295;49.452;8.466;2022-08-19T13:51:46;6.90;;;6.30;;
12459;SDS011;6295;49.452;8.466;2022-08-19T13:55:50;7.40;;;6.73;;
12459;SDS011;6295;49.452;8.466;2022-08-19T13:59:54;7.10;;;6.50;;
12459;SDS011;6295;49.452;8.466;2022-08-19T14:03:57;7.23;;;6.63;;
12459;SDS011;6295;49.452;8.466;2022-08-19T14:08:02;9.67;;;8.77;;
12459;SDS011;6295;49.452;8.466;2022-08-19T14:12:05;7.90;;;5.93;;
12459;SDS011;6295;49.452;8.466;2022-08-19T14:16:08;5.90;;;5.50;;
12459;SDS011;6295;49.452;8.466;2022-08-19T14:20:11;8.53;;;6.20;;
12459;SDS011;6295;49.452;8.466;2022-08-19T14:24:16;5.93;;;5.20;;
12459;SDS011;6295;49.452;8.466;2022-08-19T14:28:18;14.87;;;5.80;;
12459;SDS011;6295;49.452;8.466;2022-08-19T14:32:20;5.90;;;5.37;;
12459;SDS011;6295;49.452;8.466;2022-08-19T14:36:22;10.10;;;5.63;;
12459;SDS011;6295;49.452;8.466;2022-08-19T14:40:28;14.33;;;6.57;;
12459;SDS011;6295;49.452;8.466;2022-08-19T14:44:33;5.97;;;5.37;;
12459;SDS011;6295;49.452;8.466;2022-08-19T14:48:35;13.93;;;5.40;;
12459;SDS011;6295;49.452;8.466;2022-08-19T14:52:38;11.20;;;5.70;;
12459;SDS011;6295;49.452;8.466;2022-08-19T14:56:42;5.47;;;4.97;;
12459;SDS011;6295;49.452;8.466;2022-08-19T15:00:44;8.13;;;5.90;;
12459;SDS011;6295;49.452;8.466;2022-08-19T15:04:48;5.97;;;5.47;;
12459;SDS011;6295;49.452;8.466;2022-08-19T15:08:50;5.77;;;5.00;;
12459;SDS011;6295;49.452;8.466;2022-08-19T15:12:55;5.53;;;5.03;;
12459;SDS011;6295;49.452;8.466;2022-08-19T15:16:58;6.70;;;5.47;;
12459;SDS011;6295;49.452;8.466;2022-08-19T15:21:00;9.27;;;5.60;;
12459;SDS011;6295;49.452;8.466;2022-08-19T15:25:06;7.53;;;5.30;;
12459;SDS011;6295;49.452;8.466;2022-08-19T15:29:11;7.60;;;5.67;;
12459;SDS011;6295;49.452;8.466;2022-08-19T15:33:16;10.97;;;6.13;;
12459;SDS011;6295;49.452;8.466;2022-08-19T15:37:19;6.50;;;5.80;;
12459;SDS011;6295;49.452;8.466;2022-08-19T15:41:25;9.30;;;7.03;;
12459;SDS011;6295;49.452;8.466;2022-08-19T15:45:29;7.07;;;6.10;;
12459;SDS011;6295;49.452;8.466;2022-08-19T15:49:32;6.40;;;5.90;;
12459;SDS011;6295;49.452;8.466;2022-08-19T15:53:35;18.33;;;7.23;;
12459;SDS011;6295;49.452;8.466;2022-08-19T15:57:39;5.83;;;5.27;;
12459;SDS011;6295;49.452;8.466;2022-08-19T16:02:01;6.80;;;6.13;;
12459;SDS011;6295;49.452;8.466;2022-08-19T16:06:18;5.90;;;5.40;;
12459;SDS011;6295;49.452;8.466;2022-08-19T16:10:27;7.57;;;6.10;;
12459;SDS011;6295;49.452;8.466;2022-08-19T16:14:31;5.90;;;5.27;;
12459;SDS011;6295;49.452;8.466;2022-08-19T16:18:36;6.10;;;5.50;;
12459;SDS011;6295;49.452;8.466;2022-08-19T16:22:41;8.87;;;5.93;;
12459;SDS011;6295;49.452;8.466;2022-08-19T16:26:45;12.27;;;6.97;;
12459;SDS011;6295;49.452;8.466;2022-08-19T16:30:49;10.83;;;6.00;;
12459;SDS011;6295;49.452;8.466;2022-08-19T16:34:56;6.80;;;6.10;;
12459;SDS011;6295;49.452;8.466;2022-08-19T16:39:00;8.73;;;5.77;;
12459;SDS011;6295;49.452;8.466;2022-08-19T16:43:04;7.63;;;6.00;;
12459;SDS011;6295;49.452;8.466;2022-08-19T16:47:09;15.30;;;6.93;;
12459;SDS011;6295;49.452;8.466;2022-08-19T16:51:14;9.27;;;6.50;;
12459;SDS011;6295;49.452;8.466;2022-08-19T16:55:17;8.43;;;7.30;;
12459;SDS011;6295;49.452;8.466;2022-08-19T16:59:21;7.50;;;6.23;;
12459;SDS011;6295;49.452;8.466;2022-08-19T17:03:24;7.27;;;6.63;;
12459;SDS011;6295;49.452;8.466;2022-08-19T17:07:28;7.73;;;7.03;;
12459;SDS011;6295;49.452;8.466;2022-08-19T17:11:32;10.37;;;7.00;;
12459;SDS011;6295;49.452;8.466;2022-08-19T17:15:38;7.27;;;6.67;;
12459;SDS011;6295;49.452;8.466;2022-08-19T17:19:42;11.87;;;7.50;;
12459;SDS011;6295;49.452;8.466;2022-08-19T17:23:49;9.83;;;7.33;;
12459;SDS011;6295;49.452;8.466;2022-08-19T17:27:54;8.07;;;7.23;;
12459;SDS011;6295;49.452;8.466;2022-08-19T17:31:59;8.23;;;7.27;;
12459;SDS011;6295;49.452;8.466;2022-08-19T17:36:05;9.77;;;7.80;;
12459;SDS011;6295;49.452;8.466;2022-08-19T17:40:10;8.20;;;7.37;;
12459;SDS011;6295;49.452;8.466;2022-08-19T17:44:12;8.07;;;7.33;;
12459;SDS011;6295;49.452;8.466;2022-08-19T17:48:15;8.53;;;7.70;;
12459;SDS011;6295;49.452;8.466;2022-08-19T17:52:17;8.53;;;7.73;;
12459;SDS011;6295;49.452;8.466;2022-08-19T17:56:20;9.63;;;8.73;;
12459;SDS011;6295;49.452;8.466;2022-08-19T18:00:24;8.80;;;7.90;;
12459;SDS011;6295;49.452;8.466;2022-08-19T18:04:26;8.90;;;8.10;;
12459;SDS011;6295;49.452;8.466;2022-08-19T18:08:29;8.80;;;7.90;;
12459;SDS011;6295;49.452;8.466;2022-08-19T18:12:33;9.47;;;8.50;;
12459;SDS011;6295;49.452;8.466;2022-08-19T18:16:37;9.13;;;8.17;;
12459;SDS011;6295;49.452;8.466;2022-08-19T18:20:39;11.10;;;8.20;;
12459;SDS011;6295;49.452;8.466;2022-08-19T18:24:41;8.83;;;7.90;;
12459;SDS011;6295;49.452;8.466;2022-08-19T18:28:45;16.47;;;9.17;;
12459;SDS011;6295;49.452;8.466;2022-08-19T18:32:48;12.27;;;8.90;;
12459;SDS011;6295;49.452;8.466;2022-08-19T18:36:51;11.90;;;10.00;;
12459;SDS011;6295;49.452;8.466;2022-08-19T18:40:53;10.97;;;9.57;;
12459;SDS011;6295;49.452;8.466;2022-08-19T18:45:16;11.00;;;9.07;;
12459;SDS011;6295;49.452;8.466;2022-08-19T18:49:37;12.43;;;9.87;;
12459;SDS011;6295;49.452;8.466;2022-08-19T18:53:43;14.30;;;9.87;;
12459;SDS011;6295;49.452;8.466;2022-08-19T18:57:47;11.23;;;9.53;;
12459;SDS011;6295;49.452;8.466;2022-08-19T19:01:52;10.30;;;9.30;;
12459;SDS011;6295;49.452;8.466;2022-08-19T19:05:55;9.57;;;8.67;;
12459;SDS011;6295;49.452;8.466;2022-08-19T19:09:57;10.27;;;9.37;;
12459;SDS011;6295;49.452;8.466;2022-08-19T19:14:00;9.03;;;8.33;;
12459;SDS011;6295;49.452;8.466;2022-08-19T19:18:06;9.67;;;8.87;;
12459;SDS011;6295;49.452;8.466;2022-08-19T19:22:09;9.43;;;8.67;;
12459;SDS011;6295;49.452;8.466;2022-08-19T19:26:13;9.10;;;8.40;;
12459;SDS011;6295;49.452;8.466;2022-08-19T19:30:15;9.47;;;8.67;;
12459;SDS011;6295;49.452;8.466;2022-08-19T19:34:19;9.27;;;8.47;;
12459;SDS011;6295;49.452;8.466;2022-08-19T19:38:22;9.13;;;8.33;;
12459;SDS011;6295;49.452;8.466;2022-08-19T19:42:24;9.30;;;8.50;;
12459;SDS011;6295;49.452;8.466;2022-08-19T19:46:28;8.93;;;8.13;;
12459;SDS011;6295;49.452;8.466;2022-08-19T19:50:34;9.80;;;8.80;;
12459;SDS011;6295;49.452;8.466;2022-08-19T19:54:38;9.43;;;8.60;;
12459;SDS011;6295;49.452;8.466;2022-08-19T19:58:41;9.87;;;8.97;;
12459;SDS011;6295;49.452;8.466;2022-08-19T20:02:45;10.20;;;9.03;;
12459;SDS011;6295;49.452;8.466;2022-08-19T20:06:50;10.30;;;9.30;;
12459;SDS011;6295;49.452;8.466;2022-08-19T20:10:55;9.37;;;8.57;;
12459;SDS011;6295;49.452;8.466;2022-08-19T20:15:03;10.23;;;9.20;;
12459;SDS011;6295;49.452;8.466;2022-08-19T20:19:05;10.00;;;9.10;;
12459;SDS011;6295;49.452;8.466;2022-08-19T20:23:09;10.00;;;9.10;;
12459;SDS011;6295;49.452;8.466;2022-08-19T20:27:12;10.43;;;9.53;;
12459;SDS011;6295;49.452;8.466;2022-08-19T20:31:14;10.30;;;9.30;;
12459;SDS011;6295;49.452;8.466;2022-08-19T20:35:19;10.27;;;9.17;;
12459;SDS011;6295;49.452;8.466;2022-08-19T20:39:25;9.70;;;8.80;;
12459;SDS011;6295;49.452;8.466;2022-08-19T20:43:29;11.00;;;9.50;;
12459;SDS011;6295;49.452;8.466;2022-08-19T20:47:33;10.83;;;9.83;;
12459;SDS011;6295;49.452;8.466;2022-08-19T20:51:35;10.63;;;9.63;;
12459;SDS011;6295;49.452;8.466;2022-08-19T20:55:41;10.03;;;9.13;;
12459;SDS011;6295;49.452;8.466;2022-08-19T20:59:44;10.27;;;9.37;;
12459;SDS011;6295;49.452;8.466;2022-08-19T21:03:46;10.33;;;9.43;;
12459;SDS011;6295;49.452;8.466;2022-08-19T21:07:50;10.73;;;9.63;;
12459;SDS011;6295;49.452;8.466;2022-08-19T21:11:54;10.07;;;9.07;;
12459;SDS011;6295;49.452;8.466;2022-08-19T21:15:56;9.80;;;8.90;;
12459;SDS011;6295;49.452;8.466;2022-08-19T21:19:58;9.97;;;8.97;;
12459;SDS011;6295;49.452;8.466;2022-08-19T21:24:00;9.50;;;8.60;;
12459;SDS011;6295;49.452;8.466;2022-08-19T21:28:04;11.30;;;9.60;;
12459;SDS011;6295;49.452;8.466;2022-08-19T21:32:07;9.67;;;8.67;;
12459;SDS011;6295;49.452;8.466;2022-08-19T21:36:10;9.43;;;8.50;;
12459;SDS011;6295;49.452;8.466;2022-08-19T21:40:12;9.47;;;8.57;;
12459;SDS011;6295;49.452;8.466;2022-08-19T21:44:17;9.50;;;8.50;;
12459;SDS011;6295;49.452;8.466;2022-08-19T21:48:19;8.60;;;7.87;;
12459;SDS011;6295;49.452;8.466;2022-08-19T21:52:21;8.73;;;7.93;;
12459;SDS011;6295;49.452;8.466;2022-08-19T21:56:24;8.60;;;7.77;;
12459;SDS011;6295;49.452;8.466;2022-08-19T22:00:28;8.47;;;7.57;;
12459;SDS011;6295;49.452;8.466;2022-08-19T22:04:33;8.80;;;7.90;;
12459;SDS011;6295;49.452;8.466;2022-08-19T22:08:35;8.23;;;7.40;;
12459;SDS011;6295;49.452;8.466;2022-08-19T22:12:38;9.87;;;7.60;;
12459;SDS011;6295;49.452;8.466;2022-08-19T22:16:43;8.87;;;7.63;;
12459;SDS011;6295;49.452;8.466;2022-08-19T22:20:46;8.43;;;7.70;;
12459;SDS011;6295;49.452;8.466;2022-08-19T22:24:49;8.23;;;7.47;;
12459;SDS011;6295;49.452;8.466;2022-08-19T22:28:51;8.60;;;7.70;;
12459;SDS011;6295;49.452;8.466;2022-08-19T22:32:55;7.90;;;7.20;;
12459;SDS011;6295;49.452;8.466;2022-08-19T22:36:59;9.90;;;8.40;;
12459;SDS011;6295;49.452;8.466;2022-08-19T22:41:01;8.83;;;7.93;;
12459;SDS011;6295;49.452;8.466;2022-08-19T22:45:04;8.27;;;7.47;;
12459;SDS011;6295;49.452;8.466;2022-08-19T22:49:09;11.70;;;7.20;;
12459;SDS011;6295;49.452;8.466;2022-08-19T22:53:11;7.80;;;7.00;;
12459;SDS011;6295;49.452;8.466;2022-08-19T22:57:14;8.03;;;7.23;;
12459;SDS011;6295;49.452;8.466;2022-08-19T23:01:19;7.47;;;6.77;;
12459;SDS011;6295;49.452;8.466;2022-08-19T23:05:25;7.07;;;6.37;;
12459;SDS011;6295;49.452;8.466;2022-08-19T23:09:28;6.93;;;6.23;;
12459;SDS011;6295;49.452;8.466;2022-08-19T23:13:31;6.73;;;6.13;;
12459;SDS011;6295;49.452;8.466;2022-08-19T23:17:33;7.00;;;5.90;;
12459;SDS011;6295;49.452;8.466;2022-08-19T23:21:37;6.80;;;6.10;;
12459;SDS011;6295;49.452;8.466;2022-08-19T23:25:40;7.23;;;6.53;;
12459;SDS011;6295;49.452;8.466;2022-08-19T23:29:42;7.00;;;6.40;;
12459;SDS011;6295;49.452;8.466;2022-08-19T23:34:02;7.47;;;6.73;;
12459;SDS011;6295;49.452;8.466;2022-08-19T23:38:06;7.60;;;6.90;;
12459;SDS011;6295;49.452;8.466;2022-08-19T23:42:09;7.00;;;6.27;;
12459;SDS011;6295;49.452;8.466;2022-08-19T23:46:12;7.60;;;6.90;;
12459;SDS011;6295;49.452;8.466;2022-08-19T23:50:18;7.97;;;7.27;;
12459;SDS011;6295;49.452;8.466;2022-08-19T23:54:22;7.93;;;7.17;;
12459;SDS011;6295;49.452;8.466;2022-08-19T23:58:25;8.40;;;7.50;;
